Gillette, WY (82716)

11:30 AM MST on December 03, 2016 (GMT -0700)
McCann Heights, central Gillette | | Change Station

Elev 4590 ft 44.28 °N, 105.50 °W | Updated 3 seconds ago

Mostly Cloudy
Mostly Cloudy
37.7 °F
Feels Like 34 °F
N
5.0
Wind Variable Wind from NE

Today
High -- | Low -- °F
--% Chance of Precip.
Yesterday
High -- | Low -- °F
Precip. -- in
Pressure 29.99 in
Visibility 10.0 miles
Clouds Mostly Cloudy 6000 ft
Windchill 34 °F
Dew Point 23 °F
Humidity 55%
Rainfall 0.00 in
Snow Depth Not available.
7:20 AM 4:23 PM
Waxing Crescent, 16% visible
METAR KGCC 031753Z AUTO 24010KT 10SM BKN060 01/M06 A2990 RMK AO2 SLP153 T00061061 10006 21061 50003
Pressure 29.99 in
Visibility 10.0 miles
Clouds Mostly Cloudy 6000 ft
Windchill 34 °F
Dew Point 23 °F
Humidity 55%
Rainfall 0.00 in
Snow Depth Not available.
7:20 AM 4:23 PM
Waxing Crescent, 16% visible
METAR KGCC 031753Z AUTO 24010KT 10SM BKN060 01/M06 A2990 RMK AO2 SLP153 T00061061 10006 21061 50003

10-Day Weather Forecast

Almanac

Astronomy

Dec. 03, 2016 Rise Set
Actual Time
Civil Twilight
Nautical Twilight
Astronomical Twilight
Moon
Length of Visible Light
Length of Day
Tomorrow will be .
, % of the Moon is Illuminated

Today's Extremes

State Highs State Lows

Community

WunderPhotos

Upload Photos

1,955,457 photos uploaded!

WunderBlog® & News

Nearby

Air Quality

  Air Quality AQ Index Pollutant
Not available.

Snow Depth

Station Depth Elevation

Earthquake Activity

City Distance Mag. Time & Date
Minimum magnitude displayed is 2.5.

Coastal Water Temperatures

Place Temperature

Stations

Nearby Weather Stations

Station Location Temp. Windchill Dew Point Humidity Wind Precip. Elev Updated Type
                   

Watches & Warnings

There are currently no watches in effect.